Terminal Aerodrome Forecast
Issued by NWS Paducah, KY

Home | Current Version | Previous Version | Text Only | Print | Product List | Glossary On
Versions: 1 2 3 4 5 6 7 8 9 10 11 12 13 14 15 16 17 18 19 20 21 22 23 24
000
FTUS43 KPAH 260248 AAC
TAFPAH
TAF AMD
KPAH 260248Z 2603/2624 23006KT P6SM -SHRA SCT035 BKN060
      TEMPO 2603/2605 3SM SHRA BR BKN035
     FM260500 20005KT P6SM SCT060
     FM261400 22007KT P6SM BKN035
      TEMPO 2614/2618 BKN025
     FM261800 23011G17KT P6SM BKN040=

USA.gov is the U.S. government's official web portal to all federal, state and local government web resources and services.